Time;durP1;ratioP1;P1;durP2;ratioP2;P2;SDS_P1;SDS_P2;PMS_P1;PMS_P2;Temp;Humidity;BMP_temperature;BMP_pressure;BME280_temperature;BME280_humidity;BME280_pressure;Samples;Min_cycle;Max_cycle;Signal;HPM_P1;HPM_P2
2021/12/03 00:01:44;;;;;;;1.60;1.60;;;;;;;;;;5010388;28;20260;-74
2021/12/03 00:04:31;;;;;;;1.70;1.60;;;;;;;;;;5008242;28;20341;-75
2021/12/03 00:07:19;;;;;;;1.70;1.60;;;;;;;;;;4990433;28;20298;-75
2021/12/03 00:10:08;;;;;;;1.90;1.80;;;;;;;;;;4996892;28;20234;-75
2021/12/03 00:12:57;;;;;;;1.80;1.70;;;;;;;;;;5010144;28;20208;-75
2021/12/03 00:15:44;;;;;;;1.90;1.80;;;;;;;;;;5008777;28;20202;-75
2021/12/03 00:18:32;;;;;;;1.80;1.70;;;;;;;;;;5009757;28;20252;-75
2021/12/03 00:21:20;;;;;;;1.60;1.60;;;;;;;;;;5009742;28;20339;-75
2021/12/03 00:24:09;;;;;;;1.50;1.40;;;;;;;;;;5009830;28;20347;-75
2021/12/03 00:26:56;;;;;;;1.80;1.70;;;;;;;;;;5000150;28;20211;-75
2021/12/03 00:29:43;;;;;;;1.70;1.60;;;;;;;;;;4989798;28;20225;-75
2021/12/03 00:32:30;;;;;;;1.53;1.50;;;;;;;;;;4989825;28;20287;-75
2021/12/03 00:35:18;;;;;;;1.57;1.47;;;;;;;;;;4989716;28;20268;-74
2021/12/03 00:38:06;;;;;;;1.50;1.40;;;;;;;;;;4989447;28;20300;-75
2021/12/03 00:40:54;;;;;;;1.33;1.33;;;;;;;;;;5002513;28;20690;-75
2021/12/03 00:43:43;;;;;;;1.40;1.40;;;;;;;;;;5010002;28;20289;-75
2021/12/03 00:46:30;;;;;;;1.40;1.40;;;;;;;;;;5009695;28;20207;-75
2021/12/03 00:49:17;;;;;;;1.10;1.10;;;;;;;;;;5003919;28;20276;-75
2021/12/03 00:52:05;;;;;;;1.40;1.40;;;;;;;;;;4989197;28;20294;-75
2021/12/03 00:54:52;;;;;;;1.10;1.10;;;;;;;;;;4990836;28;20215;-75
2021/12/03 00:57:41;;;;;;;1.10;1.10;;;;;;;;;;5007203;28;20645;-75
2021/12/03 01:00:30;;;;;;;1.00;1.00;;;;;;;;;;5009708;28;20262;-75
2021/12/03 01:03:17;;;;;;;1.30;1.30;;;;;;;;;;5008161;28;20277;-75
2021/12/03 01:06:05;;;;;;;1.30;1.20;;;;;;;;;;5006815;28;20241;-75
2021/12/03 01:08:52;;;;;;;1.03;1.03;;;;;;;;;;5006673;28;20233;-75
2021/12/03 01:11:39;;;;;;;1.10;1.10;;;;;;;;;;5004442;28;20246;-75
2021/12/03 01:14:27;;;;;;;1.03;1.03;;;;;;;;;;5009667;28;20243;-75
2021/12/03 01:17:14;;;;;;;0.90;0.90;;;;;;;;;;5003686;28;20257;-75
2021/12/03 01:20:04;;;;;;;1.10;1.10;;;;;;;;;;5008964;28;20677;-75
2021/12/03 01:22:53;;;;;;;1.10;1.10;;;;;;;;;;5009575;28;20224;-75
2021/12/03 01:25:40;;;;;;;0.97;0.97;;;;;;;;;;5009569;28;20339;-75
2021/12/03 01:28:27;;;;;;;1.17;1.17;;;;;;;;;;5013107;28;20210;-75
2021/12/03 01:31:16;;;;;;;0.90;0.90;;;;;;;;;;5012939;28;20586;-75
2021/12/03 01:34:04;;;;;;;1.00;1.00;;;;;;;;;;5012934;28;20288;-75
2021/12/03 01:36:51;;;;;;;0.80;0.80;;;;;;;;;;5012964;28;20242;-75
2021/12/03 01:39:39;;;;;;;1.00;1.00;;;;;;;;;;5012170;28;20227;-75
2021/12/03 01:42:26;;;;;;;0.90;0.90;;;;;;;;;;4993900;28;20280;-74
2021/12/03 01:45:15;;;;;;;1.17;1.17;;;;;;;;;;4993702;28;20245;-75
2021/12/03 01:48:04;;;;;;;0.70;0.70;;;;;;;;;;4993368;28;20250;-75
2021/12/03 01:50:52;;;;;;;0.70;0.70;;;;;;;;;;4992592;28;20237;-75
2021/12/03 01:53:41;;;;;;;0.90;0.90;;;;;;;;;;4992517;28;20267;-75
2021/12/03 01:56:28;;;;;;;0.97;0.90;;;;;;;;;;4993550;28;20286;-75
2021/12/03 01:59:15;;;;;;;0.70;0.70;;;;;;;;;;4992704;28;20686;-75
2021/12/03 02:02:02;;;;;;;0.80;0.80;;;;;;;;;;4993245;28;20703;-75
2021/12/03 02:04:51;;;;;;;0.70;0.70;;;;;;;;;;5005996;28;20269;-75
2021/12/03 02:07:38;;;;;;;0.60;0.60;;;;;;;;;;5009910;28;20302;-75
2021/12/03 02:10:26;;;;;;;0.87;0.87;;;;;;;;;;5011681;28;20288;-75
2021/12/03 02:13:15;;;;;;;0.73;0.73;;;;;;;;;;5012673;28;20681;-75
2021/12/03 02:16:03;;;;;;;0.63;0.63;;;;;;;;;;5012197;28;20217;-75
2021/12/03 02:18:51;;;;;;;0.60;0.60;;;;;;;;;;5011920;28;20230;-70
2021/12/03 02:21:40;;;;;;;0.67;0.67;;;;;;;;;;5012162;28;20293;-70
2021/12/03 02:24:27;;;;;;;0.80;0.80;;;;;;;;;;5012537;28;20724;-70
2021/12/03 02:27:14;;;;;;;0.60;0.60;;;;;;;;;;5012264;28;20288;-70
2021/12/03 02:30:01;;;;;;;0.67;0.67;;;;;;;;;;5011887;28;20279;-70
2021/12/03 02:32:49;;;;;;;0.60;0.60;;;;;;;;;;5011934;28;20328;-70
2021/12/03 02:35:39;;;;;;;0.63;0.63;;;;;;;;;;5012088;28;20797;-69
2021/12/03 02:38:28;;;;;;;0.60;0.60;;;;;;;;;;5010885;28;20704;-69
2021/12/03 02:41:15;;;;;;;0.60;0.60;;;;;;;;;;5011379;28;20332;-70
2021/12/03 02:44:03;;;;;;;0.73;0.73;;;;;;;;;;5010803;28;20332;-70
2021/12/03 02:46:50;;;;;;;0.60;0.60;;;;;;;;;;5011152;28;20232;-70
2021/12/03 02:49:39;;;;;;;0.50;0.50;;;;;;;;;;5011412;28;20256;-70
2021/12/03 02:52:26;;;;;;;0.40;0.40;;;;;;;;;;5011621;28;20309;-70
2021/12/03 02:55:14;;;;;;;0.50;0.50;;;;;;;;;;5004539;28;20221;-70
2021/12/03 02:58:01;;;;;;;0.50;0.50;;;;;;;;;;4991069;28;20289;-70
2021/12/03 03:00:50;;;;;;;0.60;0.60;;;;;;;;;;4990953;28;20563;-69
2021/12/03 03:03:38;;;;;;;0.50;0.50;;;;;;;;;;5000278;28;20272;-69
2021/12/03 03:06:25;;;;;;;0.70;0.70;;;;;;;;;;4972305;28;20219;-70
2021/12/03 03:09:14;;;;;;;0.53;0.53;;;;;;;;;;4972096;28;20286;-69
2021/12/03 03:12:02;;;;;;;0.43;0.43;;;;;;;;;;4972338;28;20226;-70
2021/12/03 03:14:54;;;;;;;0.47;0.47;;;;;;;;;;4972876;28;20214;-71
2021/12/03 03:17:41;;;;;;;0.70;0.70;;;;;;;;;;4972177;28;20260;-70
2021/12/03 03:20:28;;;;;;;0.60;0.60;;;;;;;;;;4971537;28;20321;-69
2021/12/03 03:23:17;;;;;;;0.50;0.50;;;;;;;;;;4972095;28;20202;-70
2021/12/03 03:26:04;;;;;;;0.50;0.50;;;;;;;;;;4971910;28;20230;-70
2021/12/03 03:28:55;;;;;;;0.60;0.60;;;;;;;;;;4971939;28;20282;-69
2021/12/03 03:31:43;;;;;;;0.43;0.43;;;;;;;;;;4964729;28;20203;-69
2021/12/03 03:34:30;;;;;;;0.60;0.60;;;;;;;;;;4955311;28;20207;-69
2021/12/03 03:37:17;;;;;;;0.67;0.67;;;;;;;;;;4952449;29;20266;-69
2021/12/03 03:40:06;;;;;;;0.70;0.70;;;;;;;;;;4958477;28;20425;-70
2021/12/03 03:42:53;;;;;;;0.60;0.60;;;;;;;;;;4971861;28;20245;-69
2021/12/03 03:45:42;;;;;;;0.40;0.40;;;;;;;;;;4955697;28;20215;-70
2021/12/03 03:48:29;;;;;;;0.60;0.60;;;;;;;;;;4965518;28;20261;-69
2021/12/03 03:51:16;;;;;;;0.60;0.60;;;;;;;;;;4971902;28;20266;-70
2021/12/03 03:54:04;;;;;;;0.70;0.50;;;;;;;;;;4966533;28;20249;-69
2021/12/03 03:56:52;;;;;;;0.50;0.50;;;;;;;;;;4952151;29;20235;-69
2021/12/03 03:59:39;;;;;;;0.43;0.43;;;;;;;;;;4951979;29;20310;-69
2021/12/03 04:02:27;;;;;;;0.40;0.40;;;;;;;;;;4952358;29;20211;-70
2021/12/03 04:05:14;;;;;;;0.50;0.50;;;;;;;;;;4989333;28;20272;-69
2021/12/03 04:08:01;;;;;;;0.57;0.57;;;;;;;;;;5009379;28;20688;-69
2021/12/03 04:10:48;;;;;;;0.57;0.57;;;;;;;;;;5009878;28;20293;-69
2021/12/03 04:13:35;;;;;;;0.60;0.60;;;;;;;;;;5010045;28;20209;-70
2021/12/03 04:16:22;;;;;;;0.40;0.40;;;;;;;;;;4999491;28;20217;-69
2021/12/03 04:19:10;;;;;;;0.60;0.60;;;;;;;;;;4989912;28;20233;-70
2021/12/03 04:21:57;;;;;;;0.40;0.40;;;;;;;;;;4989452;28;20231;-70
2021/12/03 04:24:45;;;;;;;0.40;0.40;;;;;;;;;;4990225;28;20279;-69
2021/12/03 04:27:32;;;;;;;0.40;0.40;;;;;;;;;;4990783;28;20229;-70
2021/12/03 04:30:22;;;;;;;0.50;0.50;;;;;;;;;;4990566;28;20299;-69
2021/12/03 04:33:09;;;;;;;0.60;0.60;;;;;;;;;;4990285;28;20206;-69
2021/12/03 04:35:58;;;;;;;0.50;0.50;;;;;;;;;;4989829;28;20694;-70
2021/12/03 04:38:45;;;;;;;0.50;0.50;;;;;;;;;;4989876;28;20238;-69
2021/12/03 04:41:32;;;;;;;0.60;0.60;;;;;;;;;;5008085;28;20829;-70
2021/12/03 04:44:19;;;;;;;0.50;0.50;;;;;;;;;;5009954;28;20686;-70
2021/12/03 04:47:06;;;;;;;0.60;0.60;;;;;;;;;;5009104;28;20217;-70
2021/12/03 04:49:53;;;;;;;0.50;0.50;;;;;;;;;;5008798;28;20202;-70
2021/12/03 04:52:42;;;;;;;0.50;0.50;;;;;;;;;;5009848;28;20232;-69
2021/12/03 04:55:29;;;;;;;0.70;0.70;;;;;;;;;;5009630;28;20245;-69
2021/12/03 04:58:17;;;;;;;0.70;0.70;;;;;;;;;;5009653;28;20669;-69
2021/12/03 05:01:05;;;;;;;0.50;0.50;;;;;;;;;;5010608;28;20648;-69
2021/12/03 05:03:52;;;;;;;0.80;0.80;;;;;;;;;;5012077;28;20347;-69
2021/12/03 05:06:56;;;;;;;0.67;0.67;;;;;;;;;;5013592;28;20209;-69
2021/12/03 05:09:44;;;;;;;0.80;0.80;;;;;;;;;;5013964;28;20221;-69
2021/12/03 05:12:31;;;;;;;0.80;0.80;;;;;;;;;;5014019;28;20213;-69
2021/12/03 05:15:19;;;;;;;0.80;0.80;;;;;;;;;;5013110;28;20249;-69
2021/12/03 05:18:07;;;;;;;0.90;0.90;;;;;;;;;;5013250;28;20576;-69
2021/12/03 05:20:55;;;;;;;0.70;0.70;;;;;;;;;;5012970;28;20272;-69
2021/12/03 05:23:42;;;;;;;0.87;0.87;;;;;;;;;;5003697;28;20257;-70
2021/12/03 05:26:31;;;;;;;0.80;0.80;;;;;;;;;;4993174;28;20288;-69
2021/12/03 05:29:18;;;;;;;0.90;0.90;;;;;;;;;;4992785;28;20209;-70
2021/12/03 05:32:06;;;;;;;0.97;0.97;;;;;;;;;;4992996;28;20206;-69
2021/12/03 05:34:53;;;;;;;0.90;0.90;;;;;;;;;;4993627;28;20264;-69
2021/12/03 05:37:40;;;;;;;1.23;1.23;;;;;;;;;;4992968;28;20744;-69
2021/12/03 05:40:27;;;;;;;1.10;1.10;;;;;;;;;;5001997;28;20387;-69
2021/12/03 05:43:16;;;;;;;0.83;0.83;;;;;;;;;;5012808;28;20284;-70
2021/12/03 05:46:03;;;;;;;1.03;1.03;;;;;;;;;;5012276;28;20233;-69
2021/12/03 05:48:50;;;;;;;1.00;1.00;;;;;;;;;;5013487;28;20212;-69
2021/12/03 05:51:37;;;;;;;1.10;1.10;;;;;;;;;;5012304;28;20649;-70
2021/12/03 05:54:26;;;;;;;1.10;1.10;;;;;;;;;;5013167;28;20240;-69
2021/12/03 05:57:13;;;;;;;1.70;1.60;;;;;;;;;;5013457;28;20243;-70
2021/12/03 06:00:01;;;;;;;3.20;2.80;;;;;;;;;;5012575;28;20317;-69
2021/12/03 06:02:48;;;;;;;3.13;2.87;;;;;;;;;;5012026;28;20339;-71
2021/12/03 06:05:36;;;;;;;3.70;3.23;;;;;;;;;;5010976;28;20240;-70
2021/12/03 06:08:23;;;;;;;5.83;4.40;;;;;;;;;;5011838;28;20201;-70
2021/12/03 06:11:10;;;;;;;5.03;4.03;;;;;;;;;;5012363;28;20323;-69
2021/12/03 06:13:57;;;;;;;5.53;4.80;;;;;;;;;;4993418;28;20249;-70
2021/12/03 06:16:45;;;;;;;5.50;4.47;;;;;;;;;;5033414;28;20305;-70
2021/12/03 06:19:32;;;;;;;5.20;4.50;;;;;;;;;;5031413;28;20302;-69
2021/12/03 06:22:19;;;;;;;5.13;4.30;;;;;;;;;;5031565;28;20236;-70
2021/12/03 06:25:08;;;;;;;5.87;4.23;;;;;;;;;;5031385;28;20291;-70
2021/12/03 06:27:57;;;;;;;5.53;4.50;;;;;;;;;;5030231;28;20283;-69
2021/12/03 06:30:44;;;;;;;4.33;3.93;;;;;;;;;;5031137;28;20204;-69
2021/12/03 06:33:33;;;;;;;4.73;4.20;;;;;;;;;;5031066;28;20212;-69
2021/12/03 06:36:20;;;;;;;5.03;4.23;;;;;;;;;;5031229;28;20681;-69
2021/12/03 06:39:07;;;;;;;3.67;3.30;;;;;;;;;;5030908;28;20696;-69
2021/12/03 06:41:54;;;;;;;3.90;3.57;;;;;;;;;;4993305;28;20198;-69
2021/12/03 06:44:41;;;;;;;3.53;3.23;;;;;;;;;;4991807;28;20268;-70
2021/12/03 06:47:28;;;;;;;3.80;3.50;;;;;;;;;;4991373;28;20296;-69
2021/12/03 06:50:18;;;;;;;3.27;2.97;;;;;;;;;;4991357;28;20198;-69
2021/12/03 06:53:07;;;;;;;3.33;3.03;;;;;;;;;;4991363;28;20205;-69
2021/12/03 06:55:57;;;;;;;3.13;2.83;;;;;;;;;;4991318;28;20198;-69
2021/12/03 06:58:44;;;;;;;3.10;2.80;;;;;;;;;;4991037;28;20203;-69
2021/12/03 07:01:31;;;;;;;3.00;2.80;;;;;;;;;;4991313;28;20234;-69
2021/12/03 07:04:19;;;;;;;2.70;2.50;;;;;;;;;;5001979;28;20299;-69
2021/12/03 07:07:07;;;;;;;2.63;2.43;;;;;;;;;;5010231;28;20292;-70
2021/12/03 07:09:55;;;;;;;2.73;2.53;;;;;;;;;;5010586;28;20252;-70
2021/12/03 07:12:43;;;;;;;2.60;2.40;;;;;;;;;;5010620;28;20205;-69
2021/12/03 07:15:30;;;;;;;2.63;2.43;;;;;;;;;;5010397;28;20763;-69
2021/12/03 07:18:16;;;;;;;2.47;2.27;;;;;;;;;;5011308;28;20785;-69
2021/12/03 07:21:03;;;;;;;2.43;2.23;;;;;;;;;;5011026;28;20315;-70
2021/12/03 07:23:53;;;;;;;2.07;1.97;;;;;;;;;;5010667;28;20209;-70
2021/12/03 07:26:39;;;;;;;1.90;1.80;;;;;;;;;;5011230;28;20203;-70
2021/12/03 07:29:27;;;;;;;2.70;1.90;;;;;;;;;;5010753;28;20327;-70
2021/12/03 07:32:14;;;;;;;2.30;2.13;;;;;;;;;;5010867;28;20303;-70
2021/12/03 07:35:01;;;;;;;2.00;1.90;;;;;;;;;;4994727;28;20265;-69
2021/12/03 07:37:48;;;;;;;2.03;1.93;;;;;;;;;;4991149;28;20234;-69
2021/12/03 07:40:36;;;;;;;1.80;1.70;;;;;;;;;;5000928;28;20608;-69
2021/12/03 07:43:23;;;;;;;1.97;1.87;;;;;;;;;;5010351;28;20685;-70
2021/12/03 07:46:10;;;;;;;1.97;1.87;;;;;;;;;;5010856;28;20800;-69
2021/12/03 07:48:57;;;;;;;2.10;2.00;;;;;;;;;;5010644;28;20689;-69
2021/12/03 07:51:44;;;;;;;2.00;1.90;;;;;;;;;;5010763;28;20583;-69
2021/12/03 07:54:31;;;;;;;2.37;2.17;;;;;;;;;;5011075;28;20249;-70
2021/12/03 07:57:19;;;;;;;1.93;1.83;;;;;;;;;;5011384;28;20716;-69
2021/12/03 08:00:08;;;;;;;1.93;1.83;;;;;;;;;;5010657;28;20320;-70
2021/12/03 08:02:55;;;;;;;2.80;2.60;;;;;;;;;;5009702;28;20335;-69
2021/12/03 08:05:42;;;;;;;3.63;3.37;;;;;;;;;;5008405;28;20245;-69
2021/12/03 08:08:30;;;;;;;3.73;3.43;;;;;;;;;;5010339;28;20205;-70
2021/12/03 08:11:18;;;;;;;4.23;3.93;;;;;;;;;;5009610;28;20204;-69
2021/12/03 08:14:06;;;;;;;3.63;3.33;;;;;;;;;;4993999;28;20289;-69
2021/12/03 08:16:53;;;;;;;3.50;3.30;;;;;;;;;;5010197;28;20226;-70
2021/12/03 08:19:40;;;;;;;3.30;3.10;;;;;;;;;;5009995;28;20344;-69
2021/12/03 08:22:27;;;;;;;3.67;3.37;;;;;;;;;;5009885;28;20348;-71
2021/12/03 08:25:15;;;;;;;3.60;3.37;;;;;;;;;;5008840;28;20267;-68
2021/12/03 08:28:02;;;;;;;3.40;3.20;;;;;;;;;;5010081;28;20686;-69
2021/12/03 08:30:50;;;;;;;3.17;2.97;;;;;;;;;;5009721;28;20201;-68
2021/12/03 08:33:37;;;;;;;3.20;3.00;;;;;;;;;;5008863;28;20294;-69
2021/12/03 08:36:24;;;;;;;3.07;2.87;;;;;;;;;;5011348;28;20233;-69
2021/12/03 08:39:11;;;;;;;3.03;2.83;;;;;;;;;;5013616;28;20559;-69
2021/12/03 08:41:58;;;;;;;3.23;3.03;;;;;;;;;;5013440;28;20221;-68
2021/12/03 08:44:45;;;;;;;2.87;2.77;;;;;;;;;;5012947;28;20574;-68
2021/12/03 08:47:34;;;;;;;3.17;2.97;;;;;;;;;;5014734;28;20209;-69
2021/12/03 08:50:28;;;;;;;2.70;2.60;;;;;;;;;;5014553;28;20209;-69
2021/12/03 08:56:22;;;;;;;2.53;2.40;;;;;;;;;;4997050;28;20240;-68
2021/12/03 08:59:09;;;;;;;2.47;2.37;;;;;;;;;;5013874;28;20229;-68
2021/12/03 09:01:56;;;;;;;2.70;2.60;;;;;;;;;;5011009;28;20672;-68
2021/12/03 09:04:44;;;;;;;2.50;2.40;;;;;;;;;;5007632;28;20300;-68
2021/12/03 09:07:31;;;;;;;2.53;2.43;;;;;;;;;;5013048;28;20201;-69
2021/12/03 09:10:18;;;;;;;2.50;2.40;;;;;;;;;;5013086;28;20283;-69
2021/12/03 09:13:06;;;;;;;2.80;2.60;;;;;;;;;;5012780;28;20259;-68
2021/12/03 09:15:57;;;;;;;2.60;2.50;;;;;;;;;;5000544;28;20340;-68
2021/12/03 09:18:45;;;;;;;2.80;2.60;;;;;;;;;;5004990;28;20221;-68
2021/12/03 09:21:35;;;;;;;2.40;2.30;;;;;;;;;;5013218;28;20222;-69
2021/12/03 09:24:29;;;;;;;2.67;2.57;;;;;;;;;;5013422;28;20237;-68
2021/12/03 09:27:16;;;;;;;2.60;2.50;;;;;;;;;;5013188;28;20684;-68
2021/12/03 09:30:05;;;;;;;2.77;2.57;;;;;;;;;;5013085;28;20208;-68
2021/12/03 09:32:55;;;;;;;2.63;2.53;;;;;;;;;;5013596;28;20217;-68
2021/12/03 09:35:45;;;;;;;2.50;2.40;;;;;;;;;;4993344;28;20575;-68
2021/12/03 09:38:35;;;;;;;3.00;2.80;;;;;;;;;;4992937;28;20222;-69
2021/12/03 09:41:22;;;;;;;3.10;2.90;;;;;;;;;;5009428;28;20329;-69
2021/12/03 09:44:09;;;;;;;3.30;3.00;;;;;;;;;;5012283;28;20257;-68
2021/12/03 09:47:05;;;;;;;2.70;2.57;;;;;;;;;;5011953;28;20205;-68
2021/12/03 09:49:54;;;;;;;3.47;3.17;;;;;;;;;;5011122;28;20589;-68
2021/12/03 09:52:52;;;;;;;3.30;3.10;;;;;;;;;;5012195;28;20220;-68
2021/12/03 09:55:42;;;;;;;2.80;2.63;;;;;;;;;;5012121;28;20621;-69
2021/12/03 09:58:51;;;;;;;2.97;2.77;;;;;;;;;;5007146;28;20642;-68
2021/12/03 10:01:43;;;;;;;3.03;2.83;;;;;;;;;;5011763;28;20321;-68
2021/12/03 10:04:57;;;;;;;3.30;3.10;;;;;;;;;;5008490;28;20231;-69
2021/12/03 10:20:31;;;;;;;3.33;3.13;;;;;;;;;;5010806;28;20213;-69
2021/12/03 10:29:41;;;;;;;3.40;3.10;;;;;;;;;;5008508;28;20205;-69
2021/12/03 10:32:44;;;;;;;3.63;3.43;;;;;;;;;;5011418;28;20200;-69
2021/12/03 10:38:47;;;;;;;3.50;3.30;;;;;;;;;;5107624;27;20544;-66
2021/12/03 10:41:43;;;;;;;3.53;3.33;;;;;;;;;;5098430;28;20219;-64
2021/12/03 10:44:45;;;;;;;3.43;3.23;;;;;;;;;;5120325;28;20718;-65
2021/12/03 10:47:43;;;;;;;3.73;3.43;;;;;;;;;;5126342;28;20660;-65
2021/12/03 10:50:58;;;;;;;3.30;3.10;;;;;;;;;;5126827;28;20229;-64
2021/12/03 10:53:54;;;;;;;3.40;3.20;;;;;;;;;;5147290;27;20237;-65
2021/12/03 10:57:02;;;;;;;3.37;3.17;;;;;;;;;;5147617;27;20234;-65
2021/12/03 11:41:38;;;;;;;2.80;2.70;;;;;;;;;;5112687;28;20199;-64
2021/12/03 12:17:38;;;;;;;2.90;2.70;;;;;;;;;;5091104;28;20206;-64
2021/12/03 13:14:39;;;;;;;5.27;4.87;;;;;;;;;;5071390;28;20215;-65
2021/12/03 13:20:54;;;;;;;5.90;5.40;;;;;;;;;;5107770;28;20197;-64
2021/12/03 14:01:52;;;;;;;3.43;3.13;;;;;;;;;;5089057;28;20256;-64
2021/12/03 14:39:45;;;;;;;3.63;3.33;;;;;;;;;;5105191;28;20238;-65
2021/12/03 14:42:54;;;;;;;3.50;3.20;;;;;;;;;;5103695;28;20202;-64
2021/12/03 14:49:28;;;;;;;3.07;2.87;;;;;;;;;;5107446;28;20205;-65
2021/12/03 14:52:26;;;;;;;3.00;2.80;;;;;;;;;;5100268;28;20202;-64
2021/12/03 14:55:25;;;;;;;3.47;3.17;;;;;;;;;;5095060;28;20295;-64
2021/12/03 14:58:15;;;;;;;3.20;2.90;;;;;;;;;;5107603;28;20579;-65
2021/12/03 15:01:09;;;;;;;2.63;2.43;;;;;;;;;;5108726;28;20612;-65
2021/12/03 15:04:26;;;;;;;3.13;2.93;;;;;;;;;;5095765;28;20355;-64
2021/12/03 15:07:15;;;;;;;3.23;3.03;;;;;;;;;;5090935;28;20286;-64
2021/12/03 15:10:08;;;;;;;3.17;2.97;;;;;;;;;;5089447;28;20691;-64
2021/12/03 15:19:21;;;;;;;2.63;2.43;;;;;;;;;;5102269;28;20255;-65
2021/12/03 15:25:24;;;;;;;2.97;2.77;;;;;;;;;;5112026;28;20208;-65
2021/12/03 15:31:41;;;;;;;2.57;2.37;;;;;;;;;;5080779;28;20203;-65
2021/12/03 15:34:42;;;;;;;2.77;2.60;;;;;;;;;;5073537;28;20206;-65
2021/12/03 15:37:55;;;;;;;2.40;2.30;;;;;;;;;;5071598;28;20704;-65
2021/12/03 15:41:08;;;;;;;2.60;2.40;;;;;;;;;;5105191;28;20202;-64
2021/12/03 15:56:35;;;;;;;2.53;2.37;;;;;;;;;;5102368;28;20217;-65
2021/12/03 16:09:07;;;;;;;2.10;2.00;;;;;;;;;;5046163;28;20205;-65
2021/12/03 16:12:00;;;;;;;2.40;2.20;;;;;;;;;;5108949;28;20210;-65
2021/12/03 16:15:00;;;;;;;2.20;2.10;;;;;;;;;;5078314;28;20234;-65
2021/12/03 16:18:19;;;;;;;1.60;1.53;;;;;;;;;;5091408;28;20598;-67
2021/12/03 16:21:37;;;;;;;1.80;1.70;;;;;;;;;;5091247;28;20209;-64
2021/12/03 16:46:18;;;;;;;1.57;1.47;;;;;;;;;;5111455;28;20229;-65
2021/12/03 16:52:19;;;;;;;1.57;1.50;;;;;;;;;;5111670;28;20186;-65
2021/12/03 16:55:07;;;;;;;1.80;1.70;;;;;;;;;;5110697;28;20699;-64
2021/12/03 16:57:55;;;;;;;1.40;1.40;;;;;;;;;;5110592;28;20572;-65
2021/12/03 17:00:51;;;;;;;1.60;1.50;;;;;;;;;;5111209;28;20589;-65
2021/12/03 17:03:45;;;;;;;1.20;1.20;;;;;;;;;;5100496;28;20210;-65
2021/12/03 17:10:20;;;;;;;1.17;1.17;;;;;;;;;;5108914;28;20655;-65
2021/12/03 17:44:36;;;;;;;1.07;1.07;;;;;;;;;;5089088;28;20207;-65
2021/12/03 17:47:36;;;;;;;1.20;1.20;;;;;;;;;;5089792;28;20202;-65
2021/12/03 17:50:40;;;;;;;1.13;1.13;;;;;;;;;;5089206;28;20253;-65
2021/12/03 17:53:50;;;;;;;1.27;1.27;;;;;;;;;;5089289;28;20213;-66
2021/12/03 17:56:40;;;;;;;1.33;1.33;;;;;;;;;;5089357;28;20202;-65
2021/12/03 17:59:30;;;;;;;1.30;1.30;;;;;;;;;;5088821;28;20686;-64
2021/12/03 18:02:22;;;;;;;1.30;1.30;;;;;;;;;;5082110;28;20207;-64
2021/12/03 18:05:25;;;;;;;1.00;1.00;;;;;;;;;;5087215;28;20269;-65
2021/12/03 18:08:16;;;;;;;1.47;1.47;;;;;;;;;;5089593;28;20619;-65
2021/12/03 18:14:34;;;;;;;1.20;1.20;;;;;;;;;;5128249;27;20544;-64
2021/12/03 18:51:19;;;;;;;1.30;1.30;;;;;;;;;;5115665;27;20209;-64
2021/12/03 18:54:24;;;;;;;1.60;1.53;;;;;;;;;;5127504;28;20204;-64
2021/12/03 18:57:13;;;;;;;1.10;1.10;;;;;;;;;;5127138;27;20220;-64
2021/12/03 19:00:05;;;;;;;1.10;1.10;;;;;;;;;;5127106;28;20189;-64
2021/12/03 19:02:55;;;;;;;1.20;1.20;;;;;;;;;;5146419;27;20199;-64
2021/12/03 19:05:53;;;;;;;1.30;1.30;;;;;;;;;;5135639;27;20317;-64
2021/12/03 19:08:46;;;;;;;1.23;1.23;;;;;;;;;;5167117;27;20200;-64
2021/12/03 19:11:36;;;;;;;1.20;1.20;;;;;;;;;;5167793;27;20206;-64
2021/12/03 19:14:23;;;;;;;1.30;1.20;;;;;;;;;;5166584;27;20670;-64
2021/12/03 19:17:10;;;;;;;1.07;1.07;;;;;;;;;;5168476;27;20200;-64
2021/12/03 19:20:00;;;;;;;1.30;1.30;;;;;;;;;;5167677;27;20735;-64
2021/12/03 19:22:49;;;;;;;1.10;1.10;;;;;;;;;;5167377;27;20203;-64
2021/12/03 19:25:37;;;;;;;1.30;1.20;;;;;;;;;;5152750;27;20200;-64
2021/12/03 19:28:24;;;;;;;1.10;1.10;;;;;;;;;;5153597;27;20252;-64
2021/12/03 19:31:11;;;;;;;1.10;1.03;;;;;;;;;;5143505;27;20610;-64
2021/12/03 19:33:59;;;;;;;1.00;1.00;;;;;;;;;;5153458;27;20817;-64
2021/12/03 19:36:47;;;;;;;1.00;1.00;;;;;;;;;;5153705;27;20273;-64
2021/12/03 19:39:37;;;;;;;1.10;1.10;;;;;;;;;;5152939;27;20293;-64
2021/12/03 19:42:28;;;;;;;1.10;1.10;;;;;;;;;;5152583;27;20371;-64
2021/12/03 19:45:17;;;;;;;0.90;0.90;;;;;;;;;;5153646;27;20699;-64
2021/12/03 19:48:11;;;;;;;0.93;0.93;;;;;;;;;;5154232;27;20594;-64
2021/12/03 19:50:59;;;;;;;1.07;1.07;;;;;;;;;;5152779;27;20673;-64
2021/12/03 19:53:55;;;;;;;0.87;0.83;;;;;;;;;;5152891;27;20733;-64
2021/12/03 19:56:42;;;;;;;0.93;0.93;;;;;;;;;;5153189;27;20200;-64
2021/12/03 19:59:29;;;;;;;0.90;0.90;;;;;;;;;;5151916;27;20196;-65
2021/12/03 20:02:16;;;;;;;1.20;1.20;;;;;;;;;;5145488;27;20668;-65
2021/12/03 20:05:04;;;;;;;0.80;0.80;;;;;;;;;;5135820;27;20243;-64
2021/12/03 20:07:53;;;;;;;0.80;0.80;;;;;;;;;;5131874;27;20735;-64
2021/12/03 20:10:42;;;;;;;0.80;0.80;;;;;;;;;;5143290;27;20201;-65
2021/12/03 20:13:29;;;;;;;0.77;0.77;;;;;;;;;;5151450;27;20228;-64
2021/12/03 20:16:23;;;;;;;0.80;0.80;;;;;;;;;;5152292;27;20196;-64
2021/12/03 20:19:14;;;;;;;0.60;0.60;;;;;;;;;;5147322;27;20205;-64
2021/12/03 20:22:04;;;;;;;0.70;0.70;;;;;;;;;;5131180;27;20204;-64
2021/12/03 20:25:12;;;;;;;0.70;0.70;;;;;;;;;;5130685;27;20201;-64
2021/12/03 20:28:04;;;;;;;0.80;0.80;;;;;;;;;;5131286;27;20237;-64
2021/12/03 20:30:52;;;;;;;0.80;0.80;;;;;;;;;;5131773;27;20676;-64
2021/12/03 20:36:50;;;;;;;0.70;0.70;;;;;;;;;;5130347;27;20201;-64
2021/12/03 20:39:40;;;;;;;0.80;0.80;;;;;;;;;;5134131;27;20568;-64
2021/12/03 20:42:30;;;;;;;0.80;0.80;;;;;;;;;;5151315;27;20252;-64
2021/12/03 20:48:42;;;;;;;0.90;0.90;;;;;;;;;;5122999;27;20239;-64
2021/12/03 20:51:47;;;;;;;0.83;0.83;;;;;;;;;;5152203;27;20498;-64
2021/12/03 20:54:38;;;;;;;0.50;0.50;;;;;;;;;;5151415;27;20333;-64
2021/12/03 20:57:43;;;;;;;0.70;0.70;;;;;;;;;;5151832;27;20208;-64
2021/12/03 21:09:48;;;;;;;0.60;0.60;;;;;;;;;;5139481;27;20714;-64
2021/12/03 21:12:39;;;;;;;0.60;0.60;;;;;;;;;;5151350;27;20237;-64
2021/12/03 21:15:31;;;;;;;0.70;0.70;;;;;;;;;;5150960;27;20208;-64
2021/12/03 21:18:29;;;;;;;0.60;0.60;;;;;;;;;;5151295;27;20631;-64
2021/12/03 21:21:24;;;;;;;0.70;0.70;;;;;;;;;;5151333;27;20209;-64
2021/12/03 21:24:12;;;;;;;0.53;0.53;;;;;;;;;;5150735;27;20595;-65
2021/12/03 21:27:02;;;;;;;0.67;0.67;;;;;;;;;;5151519;27;20201;-66
2021/12/03 21:30:03;;;;;;;0.60;0.60;;;;;;;;;;5150537;27;20743;-64
2021/12/03 21:32:57;;;;;;;0.67;0.67;;;;;;;;;;5150128;27;20275;-64
2021/12/03 21:39:02;;;;;;;0.60;0.60;;;;;;;;;;5116268;27;20236;-64
2021/12/03 21:41:49;;;;;;;0.67;0.67;;;;;;;;;;5131871;27;20292;-64
2021/12/03 21:44:36;;;;;;;0.80;0.80;;;;;;;;;;5130806;27;20200;-65
2021/12/03 21:47:23;;;;;;;0.70;0.60;;;;;;;;;;5130421;27;20201;-65
2021/12/03 21:50:10;;;;;;;0.70;0.70;;;;;;;;;;5132028;27;20201;-65
2021/12/03 21:52:58;;;;;;;0.67;0.67;;;;;;;;;;5143120;27;20321;-64
2021/12/03 21:55:46;;;;;;;0.80;0.80;;;;;;;;;;5129949;27;20205;-65
2021/12/03 21:58:34;;;;;;;0.70;0.70;;;;;;;;;;5139420;27;20219;-65
2021/12/03 22:01:21;;;;;;;0.50;0.50;;;;;;;;;;5138975;27;20534;-64
2021/12/03 22:04:08;;;;;;;0.63;0.63;;;;;;;;;;5137614;27;20736;-65
2021/12/03 22:06:55;;;;;;;0.77;0.70;;;;;;;;;;5151661;27;20765;-64
2021/12/03 22:09:43;;;;;;;0.63;0.63;;;;;;;;;;5132403;27;20207;-65
2021/12/03 22:12:30;;;;;;;0.70;0.70;;;;;;;;;;5149388;27;20311;-64
2021/12/03 22:15:17;;;;;;;0.70;0.70;;;;;;;;;;5150055;27;20196;-65
2021/12/03 22:18:04;;;;;;;0.67;0.67;;;;;;;;;;5150908;27;20196;-65
2021/12/03 22:20:52;;;;;;;0.70;0.70;;;;;;;;;;5151463;27;20624;-65
2021/12/03 22:23:43;;;;;;;0.70;0.70;;;;;;;;;;5150691;27;20196;-64
2021/12/03 22:26:31;;;;;;;0.60;0.60;;;;;;;;;;5150900;27;20210;-66
2021/12/03 22:29:18;;;;;;;0.67;0.67;;;;;;;;;;5140818;27;20741;-65
2021/12/03 22:32:06;;;;;;;0.73;0.73;;;;;;;;;;5150935;27;20276;-64
2021/12/03 22:34:53;;;;;;;0.83;0.83;;;;;;;;;;5140219;27;20345;-65
2021/12/03 22:37:40;;;;;;;0.80;0.80;;;;;;;;;;5130081;28;20249;-65
2021/12/03 22:40:26;;;;;;;0.80;0.80;;;;;;;;;;5130324;27;20664;-64
2021/12/03 22:43:16;;;;;;;0.73;0.73;;;;;;;;;;5128670;28;20198;-64
2021/12/03 22:46:10;;;;;;;0.90;0.90;;;;;;;;;;5129903;28;20281;-65
2021/12/03 22:49:16;;;;;;;0.83;0.83;;;;;;;;;;5129988;27;20202;-65
2021/12/03 22:52:09;;;;;;;0.90;0.90;;;;;;;;;;5130914;28;20322;-65
2021/12/03 22:54:56;;;;;;;1.03;1.03;;;;;;;;;;5130173;28;20221;-65
2021/12/03 22:57:43;;;;;;;1.10;1.00;;;;;;;;;;5132383;27;20562;-65
2021/12/03 23:00:53;;;;;;;1.00;1.00;;;;;;;;;;5152009;27;20258;-64
2021/12/03 23:03:40;;;;;;;1.03;1.03;;;;;;;;;;5150321;27;20280;-64
2021/12/03 23:06:29;;;;;;;1.10;1.10;;;;;;;;;;5148111;27;20230;-64
2021/12/03 23:09:17;;;;;;;1.00;1.00;;;;;;;;;;5154123;27;20680;-65
2021/12/03 23:12:05;;;;;;;1.30;1.30;;;;;;;;;;5133795;27;20290;-64
2021/12/03 23:14:52;;;;;;;1.50;1.40;;;;;;;;;;5140807;27;20224;-65
2021/12/03 23:17:41;;;;;;;1.23;1.23;;;;;;;;;;5153957;27;20236;-64
2021/12/03 23:20:28;;;;;;;1.10;1.10;;;;;;;;;;5146036;27;20672;-64
2021/12/03 23:23:20;;;;;;;1.40;1.30;;;;;;;;;;5153052;27;20680;-64
2021/12/03 23:26:07;;;;;;;1.23;1.23;;;;;;;;;;5143029;27;20208;-66